Time;durP1;ratioP1;P1;durP2;ratioP2;P2;SDS_P1;SDS_P2;PMS_P1;PMS_P2;Temp;Humidity;BMP_temperature;BMP_pressure;BME280_temperature;BME280_humidity;BME280_pressure;Samples;Min_cycle;Max_cycle;Signal;HPM_P1;HPM_P2
2023/01/28 00:01:47;;;;;;;12.53;5.30;;;-0.70;99.90;;;;;;5058236;28;20574;-81
2023/01/28 00:04:13;;;;;;;11.43;5.30;;;-0.70;99.90;;;;;;5071965;28;20181;-81
2023/01/28 00:06:39;;;;;;;9.27;4.70;;;-0.70;99.90;;;;;;5073678;28;20732;-81
2023/01/28 00:09:04;;;;;;;10.40;5.03;;;-0.70;99.90;;;;;;5045418;28;20768;-82
2023/01/28 00:11:30;;;;;;;11.33;5.07;;;-0.70;99.90;;;;;;5058803;28;20416;-80
2023/01/28 00:13:56;;;;;;;11.27;4.77;;;-0.60;99.90;;;;;;5073213;28;20210;-81
2023/01/28 00:16:22;;;;;;;11.07;4.30;;;-0.60;99.90;;;;;;5072996;28;20188;-81
2023/01/28 00:18:48;;;;;;;12.60;5.17;;;-0.60;99.90;;;;;;5058366;28;20435;-81
2023/01/28 00:21:14;;;;;;;6.00;3.93;;;-0.60;99.90;;;;;;5059887;28;20181;-81
2023/01/28 00:23:42;;;;;;;7.40;4.27;;;-0.70;99.90;;;;;;5072871;28;20256;-81
2023/01/28 00:26:14;;;;;;;13.20;5.30;;;-0.70;99.90;;;;;;5071941;28;20495;-81
2023/01/28 00:28:41;;;;;;;9.77;4.50;;;-0.70;99.90;;;;;;5046581;28;20470;-81
2023/01/28 00:31:08;;;;;;;13.80;5.30;;;-0.70;99.90;;;;;;5052114;28;20892;-81
2023/01/28 00:33:34;;;;;;;8.40;3.93;;;-0.70;99.90;;;;;;5039902;28;20966;-81
2023/01/28 00:36:02;;;;;;;13.50;5.43;;;-0.60;99.90;;;;;;5066438;28;20419;-81
2023/01/28 00:38:28;;;;;;;7.43;4.00;;;-0.60;99.90;;;;;;5044882;28;20425;-81
2023/01/28 00:40:53;;;;;;;6.90;4.00;;;-0.70;99.90;;;;;;5061531;28;20415;-82
2023/01/28 00:43:20;;;;;;;6.10;3.50;;;-0.70;99.90;;;;;;5064047;28;20440;-81
2023/01/28 00:45:46;;;;;;;6.63;3.87;;;-0.70;99.90;;;;;;5039655;28;20206;-80
2023/01/28 00:48:11;;;;;;;10.27;4.80;;;-0.70;99.90;;;;;;5072591;28;20946;-81
2023/01/28 00:50:38;;;;;;;12.70;6.03;;;-0.60;99.90;;;;;;5072463;28;20181;-81
2023/01/28 00:53:04;;;;;;;6.77;4.20;;;-0.60;99.90;;;;;;5072385;28;20165;-81
2023/01/28 00:55:29;;;;;;;7.27;3.93;;;-0.60;99.90;;;;;;5071240;28;20426;-80
2023/01/28 00:57:55;;;;;;;11.23;4.90;;;-0.60;99.90;;;;;;5064315;28;20888;-81
2023/01/28 01:00:24;;;;;;;9.50;4.80;;;-0.70;99.90;;;;;;5065865;28;20239;-82
2023/01/28 01:02:50;;;;;;;12.47;5.43;;;-0.70;99.90;;;;;;5061324;28;20652;-81
2023/01/28 01:05:16;;;;;;;7.63;3.90;;;-0.70;99.90;;;;;;5070988;28;20470;-81
2023/01/28 01:07:42;;;;;;;11.53;5.03;;;-0.60;99.90;;;;;;5072873;28;20498;-81
2023/01/28 01:10:14;;;;;;;11.20;5.10;;;-0.60;99.90;;;;;;5070384;28;20828;-81
2023/01/28 01:12:40;;;;;;;9.13;4.63;;;-0.60;99.90;;;;;;5060721;28;20196;-80
2023/01/28 01:15:09;;;;;;;10.57;4.30;;;-0.60;99.90;;;;;;5060041;28;20790;-80
2023/01/28 01:17:39;;;;;;;11.43;4.70;;;-0.60;99.90;;;;;;5066600;28;20486;-80
2023/01/28 01:20:07;;;;;;;8.03;4.57;;;-0.60;99.90;;;;;;5045940;28;20431;-81
2023/01/28 01:22:35;;;;;;;7.20;4.70;;;-0.60;99.90;;;;;;5054332;28;20433;-81
2023/01/28 01:25:01;;;;;;;8.30;4.10;;;-0.70;99.90;;;;;;5071818;28;20490;-81
2023/01/28 01:27:26;;;;;;;10.93;3.97;;;-0.60;99.90;;;;;;5072330;28;20414;-80
2023/01/28 01:29:52;;;;;;;9.97;3.70;;;-0.70;99.90;;;;;;5069904;28;20503;-81
2023/01/28 01:32:19;;;;;;;8.27;4.03;;;-0.60;99.90;;;;;;5038610;28;20190;-81
2023/01/28 01:34:44;;;;;;;12.80;4.70;;;-0.70;99.90;;;;;;5069567;28;20177;-80
2023/01/28 01:37:10;;;;;;;6.67;4.07;;;-0.70;99.90;;;;;;5054791;28;20897;-81
2023/01/28 01:39:36;;;;;;;7.47;3.90;;;-0.70;99.90;;;;;;5073481;28;20187;-81
2023/01/28 01:42:01;;;;;;;10.80;4.60;;;-0.70;99.90;;;;;;5064276;28;20181;-80
2023/01/28 01:44:55;;;;;;;9.93;3.80;;;-0.60;99.90;;;;;;5056070;28;20178;-81
2023/01/28 01:47:39;;;;;;;10.13;5.20;;;-0.70;99.90;;;;;;5069398;28;20173;-81
2023/01/28 01:50:23;;;;;;;8.13;4.57;;;-0.60;99.90;;;;;;5065750;28;20448;-81
2023/01/28 01:52:54;;;;;;;9.43;4.30;;;-0.70;99.90;;;;;;5070241;28;20412;-80
2023/01/28 01:55:24;;;;;;;7.17;3.53;;;-0.70;99.90;;;;;;5068960;28;20423;-81
2023/01/28 01:57:52;;;;;;;10.17;3.97;;;-0.60;99.90;;;;;;5050051;28;20753;-81
2023/01/28 02:00:18;;;;;;;5.67;3.70;;;-0.70;99.90;;;;;;5060838;28;20416;-81
2023/01/28 02:02:47;;;;;;;11.33;4.80;;;-0.70;99.90;;;;;;5060747;28;20791;-82
2023/01/28 02:05:16;;;;;;;8.83;4.90;;;-0.70;99.90;;;;;;5060631;28;20284;-82
2023/01/28 02:07:43;;;;;;;8.90;4.10;;;-0.70;99.90;;;;;;5051618;28;20461;-81
2023/01/28 02:10:11;;;;;;;8.47;5.03;;;-0.70;99.90;;;;;;5075861;28;20421;-81
2023/01/28 02:12:41;;;;;;;7.87;4.37;;;-0.70;99.90;;;;;;5066849;28;20439;-82
2023/01/28 02:15:16;;;;;;;7.37;4.53;;;-0.60;99.90;;;;;;5061988;28;20469;-81
2023/01/28 02:17:42;;;;;;;8.60;3.83;;;-0.70;99.90;;;;;;5074330;28;20445;-82
2023/01/28 02:20:20;;;;;;;11.80;5.27;;;-0.60;99.90;;;;;;5075403;28;20465;-80
2023/01/28 02:22:58;;;;;;;16.43;5.20;;;-0.70;99.90;;;;;;5075487;28;20757;-81
2023/01/28 02:25:40;;;;;;;11.33;4.50;;;-0.60;99.90;;;;;;5061403;28;20808;-81
2023/01/28 02:28:16;;;;;;;8.50;3.90;;;-0.70;99.90;;;;;;5050507;28;20412;-80
2023/01/28 02:31:02;;;;;;;7.00;3.40;;;-0.60;99.90;;;;;;5059907;28;20411;-81
2023/01/28 02:33:39;;;;;;;10.70;4.60;;;-0.70;99.90;;;;;;5056364;28;20404;-82
2023/01/28 02:36:41;;;;;;;6.90;4.07;;;-0.60;99.90;;;;;;5057599;28;20419;-81
2023/01/28 02:39:12;;;;;;;9.13;4.33;;;-0.70;99.90;;;;;;5045769;28;20423;-81
2023/01/28 02:41:54;;;;;;;9.13;4.90;;;-0.70;99.90;;;;;;5066850;28;20423;-81
2023/01/28 02:44:19;;;;;;;10.73;5.27;;;-0.70;99.90;;;;;;5056058;28;20430;-81
2023/01/28 02:49:43;;;;;;;10.20;5.07;;;-0.70;99.90;;;;;;5060776;28;20824;-81
2023/01/28 02:55:38;;;;;;;5.63;3.57;;;-0.60;99.90;;;;;;5042266;28;20418;-81
2023/01/28 02:58:31;;;;;;;6.97;4.50;;;-0.60;99.90;;;;;;5074323;28;20412;-81
2023/01/28 03:01:18;;;;;;;6.27;3.97;;;-0.60;99.90;;;;;;5067726;28;20416;-81
2023/01/28 03:03:55;;;;;;;6.93;4.47;;;-0.60;99.90;;;;;;5068833;28;20469;-81
2023/01/28 03:06:27;;;;;;;6.30;3.60;;;-0.60;99.90;;;;;;5076747;28;20480;-81
2023/01/28 03:36:52;;;;;;;8.03;4.63;;;-0.50;99.90;;;;;;5061294;28;20528;-80
2023/01/28 03:39:21;;;;;;;9.40;3.70;;;-0.60;99.90;;;;;;5071636;28;20636;-81
2023/01/28 03:42:01;;;;;;;15.97;4.73;;;-0.60;99.90;;;;;;5061699;28;20433;-81
2023/01/28 03:47:12;;;;;;;6.80;3.80;;;-0.60;99.90;;;;;;5066817;28;20452;-80
2023/01/28 03:49:49;;;;;;;7.23;3.83;;;-0.60;99.90;;;;;;5064874;28;20427;-81
2023/01/28 03:52:17;;;;;;;5.87;3.70;;;-0.60;99.90;;;;;;5067721;28;20399;-80
2023/01/28 03:54:47;;;;;;;9.33;4.87;;;-0.60;99.90;;;;;;5071592;28;20909;-80
2023/01/28 03:57:14;;;;;;;8.83;4.63;;;-0.50;99.90;;;;;;5070404;28;21338;-80
2023/01/28 03:59:40;;;;;;;7.80;4.00;;;-0.60;99.90;;;;;;5056464;28;20420;-81
2023/01/28 04:02:06;;;;;;;10.83;5.00;;;-0.60;99.90;;;;;;5052257;28;20426;-80
2023/01/28 04:04:32;;;;;;;8.10;3.90;;;-0.50;99.90;;;;;;5062234;28;20903;-79
2023/01/28 04:06:59;;;;;;;6.73;3.33;;;-0.60;99.90;;;;;;5072714;28;20465;-81
2023/01/28 04:09:24;;;;;;;14.07;4.63;;;-0.60;99.90;;;;;;5063390;28;20440;-80
2023/01/28 04:11:50;;;;;;;9.53;3.80;;;-0.60;99.90;;;;;;5065841;28;20454;-80
2023/01/28 04:14:19;;;;;;;11.73;4.50;;;-0.60;99.90;;;;;;5052186;28;20240;-81
2023/01/28 04:16:44;;;;;;;9.47;4.20;;;-0.60;99.90;;;;;;5068724;28;20173;-81
2023/01/28 04:19:14;;;;;;;8.57;3.63;;;-0.60;99.90;;;;;;5070624;28;20428;-80
2023/01/28 04:21:39;;;;;;;9.63;4.57;;;-0.60;99.90;;;;;;5059826;28;20237;-81
2023/01/28 04:24:05;;;;;;;7.97;4.23;;;-0.60;99.90;;;;;;5072716;28;20419;-81
2023/01/28 04:26:31;;;;;;;7.63;5.03;;;-0.60;99.90;;;;;;5058920;28;20202;-81
2023/01/28 04:28:57;;;;;;;6.77;4.00;;;-0.60;99.90;;;;;;5063126;28;20911;-80
2023/01/28 04:31:23;;;;;;;9.63;4.33;;;-0.60;99.90;;;;;;5060860;28;20274;-81
2023/01/28 04:33:49;;;;;;;6.00;4.03;;;-0.60;99.90;;;;;;5061648;28;20473;-80
2023/01/28 04:36:15;;;;;;;9.87;4.83;;;-0.60;99.90;;;;;;5056008;28;20617;-81
2023/01/28 04:38:40;;;;;;;10.40;4.23;;;-0.60;99.90;;;;;;5061330;28;20479;-80
2023/01/28 04:41:06;;;;;;;15.63;6.00;;;-0.60;99.90;;;;;;5072221;28;20510;-81
2023/01/28 04:43:32;;;;;;;6.00;3.97;;;-0.60;99.90;;;;;;5062963;28;20188;-80
2023/01/28 04:45:57;;;;;;;13.17;5.30;;;-0.50;99.90;;;;;;5067148;28;20628;-81
2023/01/28 04:48:23;;;;;;;7.00;4.57;;;-0.50;99.90;;;;;;5072231;28;20263;-80
2023/01/28 04:50:48;;;;;;;8.87;5.17;;;-0.50;99.90;;;;;;5071192;28;20169;-80
2023/01/28 04:53:14;;;;;;;8.47;4.63;;;-0.50;99.90;;;;;;5072040;28;20174;-81
2023/01/28 04:55:40;;;;;;;8.53;4.20;;;-0.50;99.90;;;;;;5070718;28;20543;-79
2023/01/28 04:58:06;;;;;;;10.10;5.20;;;-0.50;99.90;;;;;;5070906;28;20177;-81
2023/01/28 05:00:31;;;;;;;9.17;5.40;;;-0.50;99.90;;;;;;5068448;28;20537;-81
2023/01/28 05:02:57;;;;;;;10.50;5.70;;;-0.50;99.90;;;;;;5059736;28;20189;-81
2023/01/28 05:05:22;;;;;;;10.90;5.07;;;-0.50;99.90;;;;;;5070826;28;20197;-81
2023/01/28 05:07:55;;;;;;;11.83;5.40;;;-0.50;99.90;;;;;;5058381;28;20212;-81
2023/01/28 05:10:22;;;;;;;7.57;4.17;;;-0.50;99.90;;;;;;5058403;28;20658;-80
2023/01/28 05:12:47;;;;;;;7.80;4.60;;;-0.50;99.90;;;;;;5070254;28;20423;-80
2023/01/28 05:15:15;;;;;;;10.47;4.13;;;-0.50;99.90;;;;;;5071847;28;20431;-81
2023/01/28 05:17:41;;;;;;;10.10;4.93;;;-0.50;99.90;;;;;;5071985;28;20287;-81
2023/01/28 05:20:08;;;;;;;7.57;4.53;;;-0.50;99.90;;;;;;5069296;28;20415;-81
2023/01/28 05:22:34;;;;;;;10.63;5.03;;;-0.50;99.90;;;;;;5051542;28;20515;-81
2023/01/28 05:25:00;;;;;;;12.10;4.80;;;-0.50;99.90;;;;;;5065845;28;20511;-80
2023/01/28 05:27:25;;;;;;;14.70;6.77;;;-0.50;99.90;;;;;;5067703;28;20261;-81
2023/01/28 05:29:51;;;;;;;9.63;5.40;;;-0.40;99.90;;;;;;5066976;28;20503;-81
2023/01/28 05:32:17;;;;;;;11.27;4.87;;;-0.40;99.90;;;;;;5053067;28;20189;-81
2023/01/28 05:34:42;;;;;;;8.90;4.70;;;-0.40;99.90;;;;;;5057291;28;20663;-81
2023/01/28 05:37:08;;;;;;;13.03;6.03;;;-0.50;99.90;;;;;;5071883;28;20188;-80
2023/01/28 05:39:34;;;;;;;14.10;6.07;;;-0.50;99.90;;;;;;5054742;28;20186;-81
2023/01/28 05:41:59;;;;;;;15.00;4.83;;;-0.50;99.90;;;;;;5051565;28;20181;-81
2023/01/28 05:44:25;;;;;;;11.10;5.80;;;-0.50;99.90;;;;;;5068022;28;20439;-81
2023/01/28 05:46:50;;;;;;;11.13;4.87;;;-0.50;99.90;;;;;;5061227;28;20237;-80
2023/01/28 05:49:16;;;;;;;13.00;5.90;;;-0.50;99.90;;;;;;5068541;28;20188;-80
2023/01/28 05:51:42;;;;;;;13.30;5.90;;;-0.50;99.90;;;;;;5071327;28;20330;-81
2023/01/28 05:54:08;;;;;;;8.17;5.97;;;-0.50;99.90;;;;;;5067967;28;20189;-80
2023/01/28 05:56:35;;;;;;;9.10;4.33;;;-0.50;99.90;;;;;;5060604;28;20193;-81
2023/01/28 05:59:02;;;;;;;14.93;5.80;;;-0.50;99.90;;;;;;5059598;28;20449;-81
2023/01/28 06:01:28;;;;;;;9.20;5.30;;;-0.50;99.90;;;;;;5059031;28;20416;-80
2023/01/28 06:03:53;;;;;;;13.70;5.10;;;-0.50;99.90;;;;;;5056812;28;20473;-81
2023/01/28 06:06:19;;;;;;;7.20;4.20;;;-0.60;99.90;;;;;;5063911;28;20680;-80
2023/01/28 06:08:45;;;;;;;11.80;5.97;;;-0.50;99.90;;;;;;5061923;28;20479;-81
2023/01/28 06:11:11;;;;;;;8.00;5.00;;;-0.50;99.90;;;;;;5075202;28;20434;-81
2023/01/28 06:13:36;;;;;;;10.17;6.10;;;-0.50;99.90;;;;;;5060281;28;20187;-81
2023/01/28 06:16:03;;;;;;;11.50;5.73;;;-0.50;99.90;;;;;;5075008;28;20177;-80
2023/01/28 06:18:28;;;;;;;9.00;4.63;;;-0.50;99.90;;;;;;5061564;28;20205;-81
2023/01/28 06:20:54;;;;;;;8.77;5.20;;;-0.50;99.90;;;;;;5063491;28;20490;-80
2023/01/28 06:23:20;;;;;;;15.83;5.93;;;-0.50;99.90;;;;;;5068081;28;20174;-80
2023/01/28 06:25:45;;;;;;;10.97;5.73;;;-0.50;99.90;;;;;;5063615;28;20205;-81
2023/01/28 06:28:11;;;;;;;9.97;4.90;;;-0.50;99.90;;;;;;5070473;28;20189;-81
2023/01/28 06:30:36;;;;;;;10.90;5.77;;;-0.50;99.90;;;;;;5073748;28;20646;-80
2023/01/28 06:33:02;;;;;;;9.33;5.20;;;-0.50;99.90;;;;;;5064115;28;20189;-80
2023/01/28 06:35:28;;;;;;;8.47;4.67;;;-0.40;99.90;;;;;;5055558;28;20264;-80
2023/01/28 06:37:53;;;;;;;13.07;5.50;;;-0.50;99.90;;;;;;5058584;28;20189;-81
2023/01/28 06:40:21;;;;;;;9.33;4.43;;;-0.50;99.90;;;;;;5054061;28;20243;-81
2023/01/28 06:42:47;;;;;;;10.30;4.93;;;-0.50;99.90;;;;;;5056225;28;20315;-81
2023/01/28 06:45:13;;;;;;;9.50;4.80;;;-0.40;99.90;;;;;;5074170;28;20465;-80
2023/01/28 06:47:39;;;;;;;12.80;6.73;;;-0.40;99.90;;;;;;5074269;28;20411;-80
2023/01/28 06:50:05;;;;;;;11.67;6.40;;;-0.50;99.90;;;;;;5063228;28;20179;-81
2023/01/28 06:52:31;;;;;;;9.40;5.10;;;-0.50;99.90;;;;;;5069266;28;20235;-81
2023/01/28 06:54:56;;;;;;;10.00;5.10;;;-0.50;99.90;;;;;;5064628;28;20444;-80
2023/01/28 06:57:22;;;;;;;8.93;4.90;;;-0.50;99.90;;;;;;5069291;28;20549;-81
2023/01/28 06:59:47;;;;;;;8.40;4.73;;;-0.40;99.90;;;;;;5064663;28;20190;-80
2023/01/28 07:02:13;;;;;;;12.00;4.83;;;-0.40;99.90;;;;;;5052454;28;20178;-81
2023/01/28 07:04:39;;;;;;;12.70;6.00;;;-0.40;99.90;;;;;;5053836;28;20733;-81
2023/01/28 07:07:04;;;;;;;11.57;6.50;;;-0.40;99.90;;;;;;5066484;28;20549;-80
2023/01/28 07:09:30;;;;;;;9.50;4.73;;;-0.40;99.90;;;;;;5063773;28;20264;-80
2023/01/28 07:11:55;;;;;;;14.23;7.07;;;-0.40;99.90;;;;;;5070589;28;20204;-81
2023/01/28 07:14:21;;;;;;;15.20;6.00;;;-0.40;99.90;;;;;;5061344;28;20536;-81
2023/01/28 07:16:47;;;;;;;10.10;5.10;;;-0.40;99.90;;;;;;5072602;28;20189;-79
2023/01/28 07:19:12;;;;;;;8.60;5.27;;;-0.40;99.90;;;;;;5073551;28;20185;-79
2023/01/28 07:21:38;;;;;;;8.57;4.57;;;-0.40;99.90;;;;;;5059772;28;20189;-82
2023/01/28 07:24:04;;;;;;;13.37;5.47;;;-0.40;99.90;;;;;;5065614;28;20541;-81
2023/01/28 07:26:30;;;;;;;10.13;4.13;;;-0.40;99.90;;;;;;5067106;28;20197;-81
2023/01/28 07:28:56;;;;;;;9.63;4.17;;;-0.40;99.90;;;;;;5049544;28;20423;-81
2023/01/28 07:31:22;;;;;;;11.60;5.63;;;-0.30;99.90;;;;;;5058590;28;20181;-82
2023/01/28 07:33:47;;;;;;;12.07;4.83;;;-0.30;99.90;;;;;;5062944;28;20177;-81
2023/01/28 07:36:13;;;;;;;8.10;4.97;;;-0.30;99.90;;;;;;5060726;28;20442;-80
2023/01/28 07:38:39;;;;;;;8.87;4.47;;;-0.30;99.90;;;;;;5053768;28;20224;-80
2023/01/28 07:41:04;;;;;;;10.27;5.13;;;-0.30;99.90;;;;;;5043978;28;20182;-80
2023/01/28 07:43:30;;;;;;;9.37;4.77;;;-0.30;99.90;;;;;;5053444;28;20567;-78
2023/01/28 07:46:00;;;;;;;9.53;4.50;;;-0.30;99.90;;;;;;5066733;28;20247;-80
2023/01/28 07:48:26;;;;;;;6.87;3.60;;;-0.20;99.90;;;;;;5062845;28;20428;-80
2023/01/28 07:50:51;;;;;;;9.50;4.93;;;-0.20;99.90;;;;;;5073111;28;20407;-79
2023/01/28 07:53:17;;;;;;;13.13;4.37;;;-0.20;99.90;;;;;;5063391;28;20209;-79
2023/01/28 07:55:42;;;;;;;9.13;4.13;;;-0.20;99.90;;;;;;5066801;28;20697;-79
2023/01/28 07:58:10;;;;;;;8.40;5.07;;;-0.20;99.90;;;;;;5061101;28;20193;-78
2023/01/28 08:00:37;;;;;;;12.27;5.20;;;-0.10;99.90;;;;;;5069972;28;20217;-78
2023/01/28 08:03:14;;;;;;;8.60;5.03;;;-0.10;99.90;;;;;;5062627;28;20421;-79
2023/01/28 08:05:48;;;;;;;9.40;5.40;;;0.00;99.90;;;;;;5053168;28;20493;-78
2023/01/28 08:08:14;;;;;;;11.60;5.50;;;0.00;99.90;;;;;;5065248;28;20469;-79
2023/01/28 08:10:40;;;;;;;12.10;5.70;;;0.00;99.90;;;;;;5067476;28;20420;-78
2023/01/28 08:13:06;;;;;;;5.37;3.50;;;0.00;99.90;;;;;;5064931;28;20462;-79
2023/01/28 08:15:33;;;;;;;9.33;5.33;;;0.00;99.90;;;;;;5054087;28;20775;-79
2023/01/28 08:17:59;;;;;;;11.37;5.30;;;0.10;99.90;;;;;;5052794;28;20536;-78
2023/01/28 08:20:27;;;;;;;13.70;5.80;;;0.10;99.90;;;;;;5063911;28;20424;-79
2023/01/28 08:22:52;;;;;;;7.57;4.43;;;0.20;99.90;;;;;;5065118;28;20996;-79
2023/01/28 08:25:18;;;;;;;9.90;5.30;;;0.10;99.90;;;;;;5053267;28;20451;-78
2023/01/28 08:27:44;;;;;;;10.83;4.90;;;0.10;99.90;;;;;;5049646;28;20179;-78
2023/01/28 08:30:11;;;;;;;10.30;4.20;;;0.10;99.90;;;;;;5051698;28;20510;-77
2023/01/28 08:32:37;;;;;;;8.27;5.17;;;0.20;99.90;;;;;;5052150;28;20230;-78
2023/01/28 08:35:03;;;;;;;11.27;4.40;;;0.20;99.90;;;;;;5057724;28;20458;-78
2023/01/28 08:37:29;;;;;;;9.73;4.97;;;0.20;99.90;;;;;;5059326;28;20478;-79
2023/01/28 08:39:54;;;;;;;11.73;5.33;;;0.20;99.90;;;;;;5065289;28;20452;-78
2023/01/28 08:42:20;;;;;;;10.73;6.07;;;0.20;99.90;;;;;;5051636;28;20182;-78
2023/01/28 08:44:47;;;;;;;11.40;5.17;;;0.20;99.90;;;;;;5050686;28;20182;-78
2023/01/28 08:47:13;;;;;;;17.23;5.63;;;0.30;99.90;;;;;;5065102;28;20209;-78
2023/01/28 08:49:39;;;;;;;10.00;5.50;;;0.30;99.90;;;;;;5058586;28;20419;-78
2023/01/28 08:52:04;;;;;;;16.00;6.60;;;0.30;99.90;;;;;;5071935;28;20417;-78
2023/01/28 08:54:30;;;;;;;10.27;5.17;;;0.30;99.90;;;;;;5058750;28;20177;-78
2023/01/28 08:56:55;;;;;;;10.27;5.67;;;0.30;99.90;;;;;;5058997;28;20276;-78
2023/01/28 08:59:21;;;;;;;9.00;4.83;;;0.30;99.90;;;;;;5059610;28;20761;-78
2023/01/28 09:01:47;;;;;;;16.73;4.97;;;0.40;99.90;;;;;;5071242;28;20215;-80
2023/01/28 09:04:12;;;;;;;17.10;5.50;;;0.40;99.90;;;;;;5053263;28;20189;-78
2023/01/28 09:06:38;;;;;;;12.40;6.10;;;0.50;99.90;;;;;;5063581;28;20212;-78
2023/01/28 09:09:03;;;;;;;12.07;6.50;;;0.50;99.90;;;;;;5058610;28;20222;-78
2023/01/28 09:11:29;;;;;;;11.27;5.57;;;0.50;99.90;;;;;;5060151;28;20520;-79
2023/01/28 09:13:57;;;;;;;10.63;5.10;;;0.60;99.90;;;;;;5065394;28;20265;-79
2023/01/28 09:16:22;;;;;;;10.70;5.53;;;0.60;99.90;;;;;;5051775;28;20196;-79
2023/01/28 09:18:50;;;;;;;11.23;5.70;;;0.50;99.90;;;;;;5065414;28;20447;-79
2023/01/28 09:21:16;;;;;;;9.70;5.43;;;0.60;99.90;;;;;;5063591;28;20183;-78
2023/01/28 09:23:41;;;;;;;8.27;4.03;;;0.60;99.90;;;;;;5052512;28;20428;-78
2023/01/28 09:26:08;;;;;;;10.00;4.73;;;0.70;99.90;;;;;;5051642;28;20288;-77
2023/01/28 09:28:34;;;;;;;12.70;5.10;;;0.70;99.90;;;;;;5066651;28;20623;-77
2023/01/28 09:31:04;;;;;;;8.70;5.03;;;0.70;99.90;;;;;;5059538;28;20420;-76
2023/01/28 09:33:30;;;;;;;12.50;4.70;;;0.70;99.90;;;;;;5058673;28;20766;-78
2023/01/28 09:36:00;;;;;;;11.70;6.13;;;0.80;99.90;;;;;;5058589;28;20899;-77
2023/01/28 09:38:25;;;;;;;11.40;5.70;;;0.80;99.90;;;;;;5063740;28;20431;-78
2023/01/28 09:40:51;;;;;;;11.50;4.80;;;0.80;99.90;;;;;;5073575;28;20423;-77
2023/01/28 09:43:43;;;;;;;7.13;4.60;;;0.80;99.90;;;;;;5050886;28;20184;-77
2023/01/28 09:46:13;;;;;;;6.00;3.27;;;0.90;99.90;;;;;;5057382;28;20201;-76
2023/01/28 09:49:01;;;;;;;13.03;5.63;;;0.90;99.90;;;;;;5067369;28;20475;-78
2023/01/28 09:51:43;;;;;;;13.73;5.67;;;1.00;99.90;;;;;;5068508;28;20494;-79
2023/01/28 09:54:37;;;;;;;14.30;6.03;;;0.90;99.90;;;;;;5069441;28;20416;-79
2023/01/28 09:57:10;;;;;;;18.23;4.87;;;1.00;99.90;;;;;;5055731;28;20516;-78
2023/01/28 09:59:36;;;;;;;9.20;4.40;;;1.00;99.90;;;;;;5061292;28;20935;-79
2023/01/28 10:02:02;;;;;;;9.40;4.90;;;1.00;99.90;;;;;;5074734;28;20533;-79
2023/01/28 10:05:02;;;;;;;13.63;4.70;;;1.00;99.90;;;;;;5075213;28;20518;-78
2023/01/28 10:07:47;;;;;;;12.00;6.00;;;1.00;99.90;;;;;;5069578;28;20211;-78
2023/01/28 10:10:24;;;;;;;11.47;4.70;;;1.20;99.90;;;;;;5061596;28;20502;-78
2023/01/28 10:13:19;;;;;;;8.37;3.93;;;1.10;99.90;;;;;;5066455;28;20412;-78
2023/01/28 10:16:16;;;;;;;8.97;4.50;;;1.20;99.90;;;;;;5074050;28;20422;-77
2023/01/28 10:18:45;;;;;;;9.97;5.07;;;1.30;99.90;;;;;;5032748;28;20935;-77
2023/01/28 10:21:26;;;;;;;8.20;4.77;;;1.30;99.90;;;;;;5063566;28;20411;-78
2023/01/28 10:23:57;;;;;;;15.00;6.27;;;1.20;99.90;;;;;;5060549;28;20407;-77
2023/01/28 10:26:29;;;;;;;10.20;4.90;;;1.20;99.90;;;;;;5061070;28;20464;-77
2023/01/28 10:28:59;;;;;;;11.47;4.17;;;1.20;99.90;;;;;;5049356;28;20505;-77
2023/01/28 10:31:34;;;;;;;9.63;4.23;;;1.30;99.90;;;;;;5065076;28;20414;-77
2023/01/28 10:34:01;;;;;;;7.77;4.67;;;1.30;99.90;;;;;;5063408;28;20451;-77
2023/01/28 10:36:28;;;;;;;10.80;5.07;;;1.30;99.90;;;;;;5049496;28;20409;-77
2023/01/28 10:38:53;;;;;;;8.73;3.90;;;1.30;99.90;;;;;;5054989;28;20467;-78
2023/01/28 10:41:21;;;;;;;7.83;4.37;;;1.20;99.90;;;;;;5054939;28;20486;-78
2023/01/28 10:43:48;;;;;;;7.33;4.67;;;1.30;99.90;;;;;;5055024;28;20827;-76
2023/01/28 10:46:28;;;;;;;11.43;4.70;;;1.30;99.90;;;;;;5059820;28;20959;-77
2023/01/28 10:48:58;;;;;;;14.63;5.37;;;1.30;99.90;;;;;;5060918;28;20438;-77
2023/01/28 10:51:39;;;;;;;8.30;4.20;;;1.20;99.90;;;;;;5035127;28;20413;-78
2023/01/28 10:54:24;;;;;;;9.63;4.80;;;1.20;99.90;;;;;;5066006;28;20425;-76
2023/01/28 10:56:54;;;;;;;9.70;4.43;;;1.20;99.90;;;;;;5074255;28;20498;-79
2023/01/28 10:59:20;;;;;;;10.80;5.73;;;1.10;99.90;;;;;;5045149;28;20420;-77
2023/01/28 11:02:02;;;;;;;16.27;6.57;;;1.10;99.90;;;;;;5053787;28;20408;-76
2023/01/28 11:04:30;;;;;;;12.00;5.17;;;1.10;99.90;;;;;;5053731;28;20879;-76
2023/01/28 11:07:03;;;;;;;13.20;5.47;;;1.10;99.90;;;;;;5054454;28;20456;-77
2023/01/28 11:09:31;;;;;;;9.37;5.03;;;1.10;99.90;;;;;;5064837;28;20449;-77
2023/01/28 11:12:09;;;;;;;10.70;5.67;;;1.00;99.90;;;;;;5056082;28;20428;-77
2023/01/28 11:14:34;;;;;;;9.60;5.40;;;1.10;99.90;;;;;;5062933;28;20408;-77
2023/01/28 11:17:00;;;;;;;10.87;5.53;;;1.20;99.90;;;;;;5066707;28;20586;-76
2023/01/28 11:19:37;;;;;;;12.77;5.27;;;1.20;99.90;;;;;;5064277;28;20188;-76
2023/01/28 11:22:03;;;;;;;12.90;4.90;;;1.20;99.90;;;;;;5072460;28;20256;-76
2023/01/28 11:24:32;;;;;;;12.10;5.70;;;1.30;99.90;;;;;;5071797;28;21024;-76
2023/01/28 11:27:01;;;;;;;15.27;5.67;;;1.40;99.90;;;;;;5053659;28;20335;-76
2023/01/28 11:29:31;;;;;;;11.37;4.87;;;1.40;99.90;;;;;;5057042;28;20416;-75
2023/01/28 11:31:58;;;;;;;11.90;5.70;;;1.50;99.90;;;;;;5032499;28;20397;-75
2023/01/28 11:34:27;;;;;;;10.43;5.30;;;1.50;99.90;;;;;;5052619;28;20428;-76
2023/01/28 11:37:12;;;;;;;10.50;5.10;;;1.60;99.90;;;;;;5052658;28;20416;-76
2023/01/28 11:39:38;;;;;;;14.10;6.20;;;1.70;99.90;;;;;;5056550;28;20923;-76
2023/01/28 11:42:18;;;;;;;12.57;6.13;;;1.80;99.90;;;;;;5051418;28;20421;-75
2023/01/28 11:44:48;;;;;;;10.60;5.67;;;1.80;99.90;;;;;;5045409;28;20182;-75
2023/01/28 11:47:24;;;;;;;25.10;7.87;;;1.70;99.90;;;;;;5057949;28;20936;-76
2023/01/28 11:49:55;;;;;;;20.17;7.20;;;1.60;99.90;;;;;;5072372;28;20923;-76
2023/01/28 11:52:33;;;;;;;10.50;5.43;;;1.50;99.90;;;;;;5069801;28;20411;-75
2023/01/28 11:55:32;;;;;;;10.60;5.73;;;1.50;99.90;;;;;;5061749;28;20421;-75
2023/01/28 11:58:00;;;;;;;14.43;6.30;;;1.40;99.90;;;;;;5069401;28;20506;-75
2023/01/28 12:00:37;;;;;;;10.73;5.23;;;1.40;99.90;;;;;;5047100;28;20687;-76
2023/01/28 12:03:26;;;;;;;15.60;7.30;;;1.30;99.90;;;;;;5051560;28;20868;-76
2023/01/28 12:06:15;;;;;;;10.47;5.17;;;1.20;99.90;;;;;;5071280;28;20450;-76
2023/01/28 12:08:59;;;;;;;17.87;6.70;;;1.20;99.90;;;;;;5069696;28;20451;-76
2023/01/28 12:14:43;;;;;;;13.93;6.90;;;1.10;99.90;;;;;;5040718;28;20455;-76
2023/01/28 12:17:20;;;;;;;12.83;7.53;;;1.00;99.90;;;;;;5057899;28;20514;-76
2023/01/28 12:20:32;;;;;;;14.73;6.80;;;1.00;99.90;;;;;;5058679;28;20925;-76
2023/01/28 12:23:25;;;;;;;16.17;6.53;;;0.90;99.90;;;;;;5035761;28;20423;-75
2023/01/28 12:26:19;;;;;;;9.47;5.80;;;0.90;99.90;;;;;;5052001;28;20538;-76
2023/01/28 12:28:45;;;;;;;14.30;6.70;;;0.90;99.90;;;;;;5059757;28;20400;-76
2023/01/28 12:31:28;;;;;;;12.50;7.53;;;0.80;99.90;;;;;;5065028;28;20751;-76
2023/01/28 12:33:56;;;;;;;13.47;7.00;;;0.80;99.90;;;;;;5051765;28;20265;-76
2023/01/28 12:36:56;;;;;;;19.10;7.90;;;0.80;99.90;;;;;;5055518;28;20494;-76
2023/01/28 12:39:46;;;;;;;13.20;6.13;;;0.80;99.90;;;;;;5063017;28;20443;-76
2023/01/28 12:42:35;;;;;;;15.63;7.87;;;0.80;99.90;;;;;;5059070;28;20911;-76
2023/01/28 12:45:22;;;;;;;15.07;8.53;;;0.80;99.90;;;;;;5046800;28;20444;-75
2023/01/28 12:48:06;;;;;;;15.60;7.70;;;0.80;99.90;;;;;;5045153;28;20430;-76
2023/01/28 12:50:53;;;;;;;12.47;6.97;;;0.80;99.90;;;;;;5051814;28;21001;-76
2023/01/28 12:53:38;;;;;;;14.83;7.30;;;0.80;99.90;;;;;;5058501;28;20476;-76
2023/01/28 12:56:14;;;;;;;17.70;7.27;;;0.90;99.90;;;;;;5058017;28;20422;-75
2023/01/28 12:58:44;;;;;;;17.20;7.10;;;0.80;99.90;;;;;;5061110;28;20419;-76
2023/01/28 13:01:19;;;;;;;14.70;6.70;;;0.90;99.90;;;;;;5051584;28;20416;-76
2023/01/28 13:04:00;;;;;;;12.43;6.40;;;0.90;99.90;;;;;;5062212;28;20460;-76
2023/01/28 13:06:44;;;;;;;12.00;5.10;;;0.90;99.90;;;;;;5060378;28;20966;-76
2023/01/28 13:09:18;;;;;;;10.63;5.83;;;0.90;99.90;;;;;;5051842;28;20461;-75
2023/01/28 13:11:45;;;;;;;13.00;5.17;;;0.90;99.90;;;;;;5064886;28;20407;-76
2023/01/28 13:14:12;;;;;;;15.10;6.17;;;0.90;99.90;;;;;;5051494;28;20423;-76
2023/01/28 13:16:38;;;;;;;12.63;6.07;;;0.90;99.90;;;;;;5064749;28;20415;-76
2023/01/28 13:19:17;;;;;;;11.07;6.70;;;0.90;99.90;;;;;;5059898;28;20416;-76
2023/01/28 13:21:43;;;;;;;8.60;5.13;;;0.90;99.90;;;;;;5057635;28;20188;-76
2023/01/28 13:24:10;;;;;;;14.70;6.60;;;1.00;99.90;;;;;;5060444;28;20450;-76
2023/01/28 13:26:43;;;;;;;13.43;6.20;;;0.90;99.90;;;;;;5065025;28;20499;-76
2023/01/28 13:29:24;;;;;;;14.20;6.27;;;0.90;99.90;;;;;;5043759;28;20424;-76
2023/01/28 13:31:52;;;;;;;16.20;7.33;;;0.90;99.90;;;;;;5071001;28;20408;-76
2023/01/28 13:34:33;;;;;;;17.70;7.53;;;0.90;99.90;;;;;;5057781;28;20412;-76
2023/01/28 13:37:16;;;;;;;16.73;7.27;;;0.90;99.90;;;;;;5058025;28;20429;-77
2023/01/28 13:39:48;;;;;;;14.80;5.90;;;0.90;99.90;;;;;;5063943;28;21150;-75
2023/01/28 13:42:23;;;;;;;15.43;6.57;;;0.90;99.90;;;;;;5057334;28;20775;-75